Flight Track Log - Related Links

Times and Time Zones

All times are in EDT time to prevent confusion due to time zone crossing. See the ASH3732 flight status page for this flight to view local times or setup timezone preferences in your user account.

Time Position Orientation Groundspeed Altitude Reporting Facility
EDT Latitude Longitude Course Direction KTS MPH feet Rate Location/Type
02:29PM 42.3500 -71.0167 124° Southeast 164 189 800  Level KA90
02:30PM 42.3167 -70.9500 124° Southeast 222 255 4,300 2,164 Climbing KA90
02:32PM 42.3364 -70.7997 80° East 290 334 7,400 2,113 Climbing Boston Center
02:33PM 42.3917 -70.7336 41° Northeast 267 307 9,900 1,650 Climbing Boston Center
02:34PM 42.4769 -70.7231 North 264 304 10,700 1,091 Climbing Boston Center
02:35PM 42.5575 -70.8081 322° Northwest 280 322 12,100 1,488 Climbing Boston Center
02:36PM 42.6133 -70.9308 302° West 349 402 13,700 942 Climbing Boston Center
02:37PM 42.6797 -71.0647 304° West 387 445 14,000 397 Climbing Boston Center
02:38PM 42.7289 -71.1683 303° West 387 445 14,500 958 Climbing Boston Center
02:39PM 42.7844 -71.3142 297° West 387 445 15,900 1,424 Climbing Boston Center
02:40PM 42.7961 -71.4497 277° West 398 458 17,300 1,412 Climbing Boston Center
02:41PM 42.8142 -71.6164 278° West 407 468 18,700 1,289 Climbing Boston Center
02:42PM 42.8278 -71.7578 278° West 412 474 19,900 1,339 Climbing Boston Center
02:43PM 42.8453 -71.9133 279° West 412 474 21,400 1,438 Climbing Boston Center
02:44PM 42.8583 -72.0661 277° West 412 474 22,800 1,388 Climbing Boston Center
02:45PM 42.8733 -72.2247 277° West 418 481 24,200 1,576 Climbing Boston Center
02:46PM 42.8922 -72.3975 279° West 424 488 25,900 1,412 Climbing Boston Center
02:47PM 42.9067 -72.5336 278° West 424 488 27,000 1,230 Climbing Boston Center
02:48PM 42.9128 -72.6925 273° West 424 488 28,400 1,220 Climbing Boston Center
02:49PM 42.9250 -72.8483 276° West 424 488 29,400 1,017 Climbing Boston Center
02:50PM 42.9428 -73.0186 278° West 424 488 30,400 878 Climbing Boston Center
02:51PM 42.9567 -73.1778 277° West 424 488 31,200 787 Climbing Boston Center
02:52PM 42.9700 -73.3367 277° West 424 488 32,000 410 Climbing Boston Center
02:53PM 42.9769 -73.4986 273° West 424 488 32,000  Level Boston Center
02:54PM 42.9919 -73.6692 277° West 437 503 32,000  Level Boston Center
02:55PM 43.0067 -73.8397 277° West 450 518 32,000 344 Level Boston Center
02:56PM 43.0189 -74.0133 276° West 457 526 32,700 689 Climbing Boston Center
02:57PM 43.0272 -74.1642 274° West 457 526 33,400 661 Climbing Boston Center
02:58PM 43.0433 -74.3322 278° West 457 526 34,000 621 Climbing Boston Center
02:58PM 43.0433 -74.3322 278° West 457 526 34,000 -100 Level Boston Center
02:59PM 43.0528 -74.5031 274° West 457 526 33,900 -100 Descending Boston Center
02:59PM 43.0528 -74.5031 274° West 457 526 33,900 100 Level Boston Center
03:00PM 43.0642 -74.6794 275° West 463 533 34,000 100 Climbing Boston Center
03:00PM 43.0642 -74.6794 275° West 463 533 34,000  Level Boston Center
03:01PM 43.0772 -74.8533 276° West 463 533 34,000  Level Boston Center
03:01PM 43.0772 -74.8533 276° West 463 533 34,000  Level Boston Center
03:02PM 43.0881 -75.0272 275° West 463 533 34,000  Level Boston Center
03:02PM 43.0881 -75.0272 275° West 463 533 34,000 632 Level Boston Center
03:03PM 43.0986 -75.1983 275° West 463 533 34,600 632 Climbing Boston Center
03:03PM 43.0986 -75.1983 275° West 463 533 34,600 492 Level Boston Center
03:04PM 43.1108 -75.3753 275° West 463 533 35,100 492 Climbing Boston Center
03:04PM 43.1108 -75.3753 275° West 463 533 35,100 500 Level Boston Center
03:05PM 43.1208 -75.5494 275° West 463 533 35,600 500 Climbing Boston Center
03:05PM 43.1208 -75.5494 275° West 463 533 35,600 590 Level Boston Center
03:06PM 43.1328 -75.7208 276° West 463 533 36,200 590 Climbing Boston Center
03:06PM 43.1328 -75.7208 276° West 463 533 36,200 429 Level Boston Center
03:08PM 43.1550 -76.1033 275° West 460 529 37,100 429 Climbing Cleveland Center
03:08PM 43.1550 -76.1033 275° West 460 529 37,100 700 Level Cleveland Center
03:09PM 43.1617 -76.2764 273° West 460 529 37,800 700 Climbing Cleveland Center
03:09PM 43.1617 -76.2764 273° West 460 529 37,800 200 Level Cleveland Center
03:10PM 43.1636 -76.4442 271° West 460 529 38,000 200 Climbing Cleveland Center
03:10PM 43.1636 -76.4442 271° West 460 529 38,000  Level Cleveland Center
03:11PM 43.1592 -76.6156 268° West 460 529 38,000  Level Cleveland Center
03:11PM 43.1592 -76.6156 268° West 460 529 38,000  Level Cleveland Center
03:12PM 43.1603 -76.7692 271° West 455 524 38,000  Level Cleveland Center
03:12PM 43.1603 -76.7692 271° West 455 524 38,000  Level Cleveland Center
03:13PM 43.1594 -76.9400 270° West 455 524 38,000  Level Cleveland Center
03:13PM 43.1594 -76.9400 270° West 455 524 38,000  Level Cleveland Center
03:14PM 43.1586 -77.1136 270° West 460 529 38,000  Level Cleveland Center
03:14PM 43.1586 -77.1136 270° West 460 529 38,000  Level Cleveland Center
03:15PM 43.1572 -77.2844 269° West 460 529 38,000  Level Cleveland Center
03:15PM 43.1572 -77.2844 269° West 460 529 38,000  Level Cleveland Center
03:16PM 43.1536 -77.4528 268° West 460 529 38,000  Level Cleveland Center
03:16PM 43.1536 -77.4528 268° West 460 529 38,000  Level Cleveland Center
03:17PM 43.1539 -77.6233 270° West 460 529 38,000  Level Cleveland Center
03:17PM 43.1539 -77.6233 270° West 460 529 38,000  Level Cleveland Center
03:18PM 43.1519 -77.7914 269° West 455 524 38,000  Level Cleveland Center
03:18PM 43.1519 -77.7914 269° West 455 524 38,000  Level Cleveland Center
03:19PM 43.1494 -77.9594 269° West 455 524 38,000  Level Cleveland Center
03:19PM 43.1494 -77.9594 269° West 455 524 38,000  Level Cleveland Center
03:20PM 43.1469 -78.1275 269° West 450 518 38,000  Level Cleveland Center
03:20PM 43.1469 -78.1275 269° West 450 518 38,000  Level Cleveland Center
03:21PM 43.1442 -78.2956 269° West 444 511 38,000  Level Cleveland Center
03:21PM 43.1442 -78.2956 269° West 444 511 38,000  Level Cleveland Center
03:22PM 43.1411 -78.4606 269° West 444 511 38,000  Level Cleveland Center
03:22PM 43.1411 -78.4606 269° West 444 511 38,000  Level Cleveland Center
03:23PM 43.1378 -78.6258 268° West 444 511 38,000  Level Cleveland Center
03:23PM 43.1378 -78.6258 268° West 444 511 38,000  Level Cleveland Center
03:24PM 43.1300 -78.7939 266° West 444 511 38,000  Level Cleveland Center
03:24PM 43.1300 -78.7939 266° West 444 511 38,000  Level Cleveland Center
03:25PM 43.1283 -78.9589 269° West 444 511 38,000  Level Cleveland Center
03:25PM 43.1283 -78.9589 269° West 444 511 38,000  Level Cleveland Center
03:26PM 43.1167 -79.1833 266° West 440 506 38,000  Level Toronto Center
03:26PM 43.1167 -79.1833 266° West 440 506 38,000  Level Toronto Center
03:27PM 43.1000 -79.3333 261° West 440 506 38,000  Level Toronto Center
03:27PM 43.1000 -79.3333 261° West 440 506 38,000  Level Toronto Center
03:28PM 43.1000 -79.5000 270° West 450 518 38,000  Level Toronto Center
03:28PM 43.1000 -79.5000 270° West 450 518 38,000  Level Toronto Center
03:29PM 43.1000 -79.6833 270° West 450 518 38,000  Level Toronto Center
03:29PM 43.1000 -79.6833 270° West 450 518 38,000  Level Toronto Center
03:30PM 43.0833 -79.8333 261° West 450 518 38,000  Level Toronto Center
03:30PM 43.0833 -79.8333 261° West 450 518 38,000  Level Toronto Center
03:31PM 43.0833 -80.0000 270° West 450 518 38,000  Level Toronto Center
03:31PM 43.0833 -80.0000 270° West 450 518 38,000  Level Toronto Center
03:32PM 43.0667 -80.1833 263° West 450 518 38,000  Level Toronto Center
03:32PM 43.0667 -80.1833 263° West 450 518 38,000  Level Toronto Center
03:33PM 43.0667 -80.3667 270° West 440 506 38,000  Level Toronto Center
03:33PM 43.0667 -80.3667 270° West 440 506 38,000  Level Toronto Center
03:34PM 43.0667 -80.5167 270° West 440 506 38,000  Level Toronto Center
03:34PM 43.0667 -80.5167 270° West 440 506 38,000  Level Toronto Center
03:35PM 43.0500 -80.6833 262° West 420 483 38,000  Level Toronto Center
03:35PM 43.0500 -80.6833 262° West 420 483 38,000  Level Toronto Center
03:36PM 43.0333 -80.8500 262° West 420 483 38,000  Level Toronto Center
03:36PM 43.0333 -80.8500 262° West 420 483 38,000  Level Toronto Center
03:37PM 43.0333 -81.0000 270° West 420 483 38,000  Level Toronto Center
03:37PM 43.0333 -81.0000 270° West 420 483 38,000  Level Toronto Center
03:38PM 43.0167 -81.1667 262° West 420 483 38,000  Level Toronto Center
03:38PM 43.0167 -81.1667 262° West 420 483 38,000  Level Toronto Center
03:39PM 43.0167 -81.3167 270° West 420 483 38,000  Level Toronto Center
03:39PM 43.0167 -81.3167 270° West 420 483 38,000  Level Toronto Center
03:40PM 43.0167 -81.4833 270° West 420 483 38,000  Level Toronto Center
03:40PM 43.0167 -81.4833 270° West 420 483 38,000  Level Toronto Center
03:41PM 43.0167 -81.6333 270° West 420 483 38,000  Level Toronto Center
03:41PM 43.0167 -81.6333 270° West 420 483 38,000  Level Toronto Center
03:42PM 43.0167 -81.8000 270° West 420 483 38,000  Level Toronto Center
03:42PM 43.0167 -81.8000 270° West 420 483 38,000  Level Toronto Center
03:48PM 43.0000 -82.7747 269° West 422 486 38,000 -211 Level Cleveland Center
03:49PM 42.9947 -82.9364 267° West 422 486 36,500 -1,500 Descending Cleveland Center
03:50PM 42.9894 -83.0922 267° West 422 486 35,000 -1,500 Descending Cleveland Center
03:51PM 42.9856 -83.2594 268° West 422 486 33,500 -1,450 Descending Cleveland Center
03:52PM 42.9797 -83.4211 267° West 422 486 32,100 -750 Descending Cleveland Center
03:53PM 42.9714 -83.5825 266° West 422 486 32,000 -50 Descending Cleveland Center
03:54PM 42.9669 -83.7525 268° West 427 491 32,000  Level Cleveland Center
03:55PM 42.9497 -83.9164 262° West 438 504 32,000  Level Cleveland Center
03:56PM 42.9344 -84.0800 263° West 443 510 32,000  Level Cleveland Center
03:57PM 42.9169 -84.2433 262° West 443 510 32,000  Level Cleveland Center
03:58PM 42.9033 -84.4072 264° West 443 510 32,000  Level Cleveland Center
03:59PM 42.8928 -84.5094 262° West 440 506 32,000  Level Chicago Center
04:00PM 42.8753 -84.6731 262° West 439 505 32,000  Level Chicago Center
04:01PM 42.8589 -84.8400 262° West 443 510 32,000  Level Chicago Center
04:02PM 42.8408 -85.0042 262° West 440 506 32,000  Level Chicago Center
04:03PM 42.8233 -85.1694 262° West 441 507 32,000 -768 Level Chicago Center
04:04PM 42.8017 -85.3692 262° West 443 510 30,400 -960 Descending Chicago Center
04:05PM 42.7817 -85.5319 261° West 438 504 30,000 -194 Descending Chicago Center
04:06PM 42.7511 -85.6914 255° West 434 499 30,000  Level Chicago Center
04:07PM 42.7219 -85.8528 256° West 435 501 30,000 -532 Level Chicago Center
04:08PM 42.6944 -86.0028 256° West 417 480 28,900 -1,645 Descending Chicago Center
04:09PM 42.6708 -86.1394 257° West 376 433 26,600 -2,226 Descending Chicago Center
04:10PM 42.6458 -86.2753 256° West 369 425 24,300 -2,613 Descending Chicago Center
04:11PM 42.6125 -86.4569 256° West 427 491 21,200 -2,855 Descending Chicago Center
04:12PM 42.5825 -86.6158 256° West 439 505 18,400 -2,710 Descending Chicago Center
04:13PM 42.5511 -86.7653 254° West 416 479 15,600 -2,806 Descending Chicago Center
04:14PM 42.5122 -86.9086 250° West 408 470 12,600 -2,661 Descending Chicago Center
04:15PM 42.4756 -87.0436 250° West 389 448 10,100 -1,296 Descending Chicago Center
04:17PM 42.4428 -87.1644 250° West 350 403 9,900 -528 Descending Chicago Center
04:18PM 42.4167 -87.2664 251° West 300 345 9,000 -435 Descending Chicago Center
04:19PM 42.3825 -87.3844 249° West 284 327 9,000 -48 Level Chicago Center
04:20PM 42.3536 -87.4836 249° West 278 320 8,900 -871 Descending Chicago Center
04:21PM 42.3022 -87.5581 227° Southwest 283 326 7,200 -919 Descending Chicago Center
04:22PM 42.2439 -87.6242 220° Southwest 279 321 7,000 -726 Descending Chicago Center
04:23PM 42.1894 -87.6867 220° Southwest 264 304 5,700 -1,355 Descending Chicago Center
04:24PM 42.1369 -87.7461 220° Southwest 212 244 4,200 -1,210 Descending Chicago Center
04:25PM 42.0978 -87.7869 218° Southwest 190 219 3,200 -1,000 Descending Chicago Center
04:26PM 42.0667 -87.8167 215° Southwest 179 206 2,400 -857 Descending Chicago TRACON
04:27PM 42.0333 -87.8667 228° Southwest 138 159 1,600 -750 Descending Chicago TRACON
04:28PM 42.0000 -87.8833 200° South 140 161 900 -778 Descending Chicago TRACON

Login

Don't have an account? Register now (free) for customized features, flight alerts, and more!